Terminal Aerodrome Forecast
Issued by NWS

Home | Current Version | Previous Version | Text Only | Print | Product List | Glossary On
Versions: 1 2 3 4 5 6 7 8 9 10 11 12 13 14 15 16
000
FTUS44 KEPZ 292324
TAFTCS
TAF
KTCS 292324Z 3000/3024 07008KT P6SM VCTS SCT080CB BKN250
     FM300600 29006KT P6SM FEW100 SCT250
     FM301800 17007KT P6SM SCT080 SCT250
     FM302100 24008KT P6SM SCT080 SCT250=

USA.gov is the U.S. government's official web portal to all federal, state and local government web resources and services.